createdAt,value
2018-12-20T00:01:52.769Z,56.60
2018-12-20T00:04:21.692Z,55.10
2018-12-20T00:06:50.284Z,56.23
2018-12-20T00:09:19.157Z,54.43
2018-12-20T00:11:47.856Z,54.67
2018-12-20T00:14:16.849Z,56.90
2018-12-20T00:16:47.572Z,56.70
2018-12-20T00:19:24.935Z,56.10
2018-12-20T00:21:53.565Z,54.50
2018-12-20T00:24:22.409Z,58.97
2018-12-20T00:26:50.990Z,58.97
2018-12-20T00:29:19.878Z,58.60
2018-12-20T00:31:48.575Z,58.53
2018-12-20T00:34:17.624Z,57.80
2018-12-20T00:36:46.310Z,56.63
2018-12-20T00:39:15.573Z,56.30
2018-12-20T00:41:44.180Z,55.23
2018-12-20T00:44:12.922Z,56.43
2018-12-20T00:46:41.587Z,55.67
2018-12-20T00:49:10.298Z,55.93
2018-12-20T00:51:39.332Z,54.97
2018-12-20T00:54:08.115Z,55.53
2018-12-20T00:56:36.770Z,54.97
2018-12-20T00:59:05.372Z,57.50
2018-12-20T01:01:34.026Z,57.80
2018-12-20T01:04:03.104Z,54.87
2018-12-20T01:06:31.862Z,56.93
2018-12-20T01:09:00.460Z,57.97
2018-12-20T01:11:29.101Z,58.87
2018-12-20T01:13:57.982Z,60.73
2018-12-20T01:16:26.909Z,55.77
2018-12-20T01:18:55.835Z,57.50
2018-12-20T01:21:24.577Z,58.47
2018-12-20T01:23:53.438Z,62.70
2018-12-20T01:26:22.112Z,62.57
2018-12-20T01:28:50.987Z,64.97
2018-12-20T01:31:19.566Z,65.97
2018-12-20T01:33:48.237Z,63.20
2018-12-20T01:36:16.954Z,64.83
2018-12-20T01:38:45.651Z,66.33
2018-12-20T01:41:14.333Z,65.23
2018-12-20T01:43:43.242Z,64.03
2018-12-20T01:46:11.830Z,66.93
2018-12-20T01:48:41.793Z,64.40
2018-12-20T01:51:10.474Z,59.73
2018-12-20T01:53:39.628Z,58.83
2018-12-20T01:56:08.482Z,60.00
2018-12-20T01:58:37.431Z,58.97
2018-12-20T02:01:06.308Z,60.70
2018-12-20T02:03:35.227Z,59.40
2018-12-20T02:06:04.251Z,58.57
2018-12-20T02:08:33.226Z,58.63
2018-12-20T02:11:02.021Z,60.93
2018-12-20T02:13:31.149Z,59.00
2018-12-20T02:15:59.847Z,58.27
2018-12-20T02:18:28.986Z,56.23
2018-12-20T02:20:57.852Z,57.77
2018-12-20T02:23:26.646Z,56.03
2018-12-20T02:25:55.270Z,56.77
2018-12-20T02:28:24.150Z,57.03
2018-12-20T02:30:53.069Z,55.90
2018-12-20T02:33:22.210Z,59.20
2018-12-20T02:35:51.079Z,58.57
2018-12-20T02:38:19.943Z,58.20
2018-12-20T02:40:48.535Z,57.70
2018-12-20T02:43:17.321Z,59.73
2018-12-20T02:45:46.072Z,60.90
2018-12-20T02:48:14.946Z,58.67
2018-12-20T02:50:43.749Z,57.67
2018-12-20T02:53:12.955Z,58.80
2018-12-20T02:55:41.763Z,56.50
2018-12-20T02:58:10.666Z,58.70
2018-12-20T03:00:39.319Z,55.80
2018-12-20T03:03:08.091Z,55.93
2018-12-20T03:05:36.713Z,56.07
2018-12-20T03:08:05.637Z,55.67
2018-12-20T03:10:34.436Z,56.90
2018-12-20T03:13:03.240Z,57.13
2018-12-20T03:15:31.832Z,55.37
2018-12-20T03:18:00.766Z,57.57
2018-12-20T03:20:29.438Z,54.37
2018-12-20T03:22:58.067Z,57.00
2018-12-20T03:25:26.965Z,54.73
2018-12-20T03:27:55.925Z,55.70
2018-12-20T03:30:24.785Z,55.07
2018-12-20T03:32:53.669Z,55.23
2018-12-20T03:35:22.387Z,52.47
2018-12-20T03:37:51.221Z,54.43
2018-12-20T03:40:19.912Z,55.63
2018-12-20T03:42:48.511Z,52.37
2018-12-20T03:45:17.501Z,57.43
2018-12-20T03:47:46.225Z,54.30
2018-12-20T03:50:15.079Z,54.10
2018-12-20T03:52:44.231Z,53.70
2018-12-20T03:55:12.943Z,55.03
2018-12-20T03:57:42.007Z,55.00
2018-12-20T04:00:10.950Z,54.30
2018-12-20T04:02:39.782Z,53.67
2018-12-20T04:05:08.508Z,54.57
2018-12-20T04:07:37.167Z,56.00
2018-12-20T04:10:06.052Z,69.50
2018-12-20T04:12:34.863Z,82.73
2018-12-20T04:15:03.425Z,78.90
2018-12-20T04:17:32.142Z,77.47
2018-12-20T04:20:00.730Z,82.03
2018-12-20T04:22:29.603Z,78.00
2018-12-20T04:24:58.188Z,83.03
2018-12-20T04:27:26.919Z,65.20
2018-12-20T04:29:55.689Z,61.70
2018-12-20T04:32:24.440Z,60.27
2018-12-20T04:34:53.047Z,59.20
2018-12-20T04:37:22.204Z,70.77
2018-12-20T04:39:50.970Z,78.60
2018-12-20T04:42:19.624Z,69.03
2018-12-20T04:44:48.295Z,62.10
2018-12-20T04:47:16.876Z,68.80
2018-12-20T04:49:45.716Z,76.43
2018-12-20T04:52:14.724Z,70.53
2018-12-20T04:54:43.399Z,80.83
2018-12-20T04:57:12.128Z,82.67
2018-12-20T04:59:40.867Z,68.10
2018-12-20T05:02:09.469Z,71.37
2018-12-20T05:04:38.163Z,66.53
2018-12-20T05:07:06.821Z,60.70
2018-12-20T05:09:35.524Z,59.17
2018-12-20T05:12:04.350Z,55.00
2018-12-20T05:14:33.148Z,53.27
2018-12-20T05:17:01.983Z,51.70
2018-12-20T05:19:30.742Z,51.50
2018-12-20T05:21:59.390Z,52.33
2018-12-20T05:24:28.259Z,52.47
2018-12-20T05:26:56.925Z,49.33
2018-12-20T05:29:25.472Z,50.20
2018-12-20T05:31:54.038Z,49.87
2018-12-20T05:34:22.597Z,51.20
2018-12-20T05:36:51.348Z,53.03
2018-12-20T05:39:20.029Z,56.03
2018-12-20T05:41:48.903Z,57.37
2018-12-20T05:44:17.777Z,64.07
2018-12-20T05:46:46.475Z,61.93
2018-12-20T05:49:15.017Z,58.77
2018-12-20T05:51:43.600Z,56.87
2018-12-20T05:54:12.312Z,57.00
2018-12-20T05:56:41.236Z,55.27
2018-12-20T05:59:09.875Z,53.03
2018-12-20T06:01:38.879Z,51.97
2018-12-20T06:04:07.429Z,53.20
2018-12-20T06:06:36.255Z,54.90
2018-12-20T06:09:07.683Z,53.90
2018-12-20T06:11:36.803Z,54.83
2018-12-20T06:14:05.556Z,52.93
2018-12-20T06:16:34.384Z,53.20
2018-12-20T06:19:03.150Z,58.63
2018-12-20T06:21:31.970Z,59.50
2018-12-20T06:24:00.494Z,57.83
2018-12-20T06:26:29.057Z,56.67
2018-12-20T06:28:57.567Z,55.60
2018-12-20T06:31:26.322Z,55.83
2018-12-20T06:33:54.852Z,56.40
2018-12-20T06:36:23.548Z,58.17
2018-12-20T06:38:52.063Z,58.37
2018-12-20T06:41:20.784Z,56.63
2018-12-20T06:43:49.388Z,56.30
2018-12-20T06:46:21.323Z,54.57
2018-12-20T06:48:48.786Z,57.47
2018-12-20T06:51:17.597Z,58.53
2018-12-20T06:53:46.175Z,55.37
2018-12-20T06:56:15.070Z,59.33
2018-12-20T06:58:43.598Z,55.67
2018-12-20T07:01:12.364Z,58.23
2018-12-20T07:03:40.896Z,58.50
2018-12-20T07:06:09.463Z,63.80
2018-12-20T07:08:38.020Z,58.93
2018-12-20T07:11:06.899Z,57.37
2018-12-20T07:13:35.702Z,59.17
2018-12-20T07:16:04.362Z,56.80
2018-12-20T07:18:33.034Z,56.27
2018-12-20T07:21:01.833Z,57.50
2018-12-20T07:23:30.610Z,59.50
2018-12-20T07:25:59.451Z,63.77
2018-12-20T07:28:28.008Z,59.80
2018-12-20T07:30:56.595Z,68.47
2018-12-20T07:33:25.209Z,64.43
2018-12-20T07:35:54.000Z,64.53
2018-12-20T07:38:22.584Z,64.10
2018-12-20T07:40:51.696Z,61.63
2018-12-20T07:43:21.516Z,61.50
2018-12-20T07:45:50.227Z,59.73
2018-12-20T07:48:18.756Z,60.73
2018-12-20T07:50:47.565Z,57.30
2018-12-20T07:53:16.565Z,59.43
2018-12-20T07:55:45.151Z,57.70
2018-12-20T07:58:13.921Z,61.07
2018-12-20T08:00:42.571Z,59.87
2018-12-20T08:03:11.208Z,63.33
2018-12-20T08:05:39.877Z,63.97
2018-12-20T08:08:08.421Z,61.53
2018-12-20T08:10:37.229Z,60.00
2018-12-20T08:13:05.808Z,62.47
2018-12-20T08:15:34.576Z,63.37
2018-12-20T08:18:03.134Z,63.17
2018-12-20T08:20:31.710Z,64.63
2018-12-20T08:23:00.284Z,65.67
2018-12-20T08:25:28.844Z,65.07
2018-12-20T08:27:57.397Z,64.83
2018-12-20T08:30:26.203Z,65.30
2018-12-20T08:32:54.967Z,65.03
2018-12-20T08:35:23.687Z,67.57
2018-12-20T08:37:52.453Z,68.83
2018-12-20T08:40:21.272Z,73.60
2018-12-20T08:42:49.856Z,76.10
2018-12-20T08:45:18.655Z,69.40
2018-12-20T08:47:47.286Z,68.50
2018-12-20T08:50:15.843Z,68.63
2018-12-20T08:52:44.380Z,65.87
2018-12-20T08:55:12.935Z,58.73
2018-12-20T08:57:41.460Z,59.27
2018-12-20T09:00:10.474Z,61.53
2018-12-20T09:02:39.022Z,78.47
2018-12-20T09:05:07.881Z,67.13
2018-12-20T09:07:36.652Z,76.03
2018-12-20T09:10:05.330Z,71.40
2018-12-20T09:12:33.874Z,69.57
2018-12-20T09:15:02.742Z,62.70
2018-12-20T09:17:31.354Z,65.77
2018-12-20T09:20:00.172Z,66.27
2018-12-20T09:22:28.789Z,62.37
2018-12-20T09:24:57.354Z,63.17
2018-12-20T09:27:26.095Z,62.83
2018-12-20T09:29:54.796Z,63.73
2018-12-20T09:32:23.338Z,66.43
2018-12-20T09:34:52.175Z,62.90
2018-12-20T09:37:21.647Z,59.80
2018-12-20T09:39:50.441Z,59.20
2018-12-20T09:42:19.019Z,59.27
2018-12-20T09:44:47.687Z,62.27
2018-12-20T09:47:21.526Z,56.33
2018-12-20T09:49:50.075Z,61.80
2018-12-20T09:52:18.593Z,60.97
2018-12-20T09:54:47.155Z,57.17
2018-12-20T09:57:15.703Z,56.87
2018-12-20T09:59:44.468Z,58.23
2018-12-20T10:02:12.991Z,64.17
2018-12-20T10:04:41.838Z,61.90
2018-12-20T10:07:10.366Z,70.53
2018-12-20T10:09:39.169Z,72.37
2018-12-20T10:12:07.696Z,74.87
2018-12-20T10:14:36.237Z,73.87
2018-12-20T10:17:04.775Z,64.57
2018-12-20T10:19:33.684Z,63.50
2018-12-20T10:22:02.331Z,61.53
2018-12-20T10:24:30.953Z,62.87
2018-12-20T10:26:59.486Z,60.63
2018-12-20T10:29:28.306Z,65.33
2018-12-20T10:31:56.832Z,72.97
2018-12-20T10:34:25.380Z,71.53
2018-12-20T10:36:54.101Z,71.53
2018-12-20T10:39:22.767Z,77.30
2018-12-20T10:41:51.317Z,78.47
2018-12-20T10:44:20.161Z,86.70
2018-12-20T10:46:48.684Z,81.60
2018-12-20T10:49:17.436Z,81.20
2018-12-20T10:51:45.983Z,84.47
2018-12-20T10:54:14.537Z,86.03
2018-12-20T10:56:43.098Z,84.83
2018-12-20T10:59:11.694Z,80.50
2018-12-20T11:01:45.485Z,78.30
2018-12-20T11:04:22.710Z,80.33
2018-12-20T11:06:56.585Z,80.37
2018-12-20T11:09:30.539Z,78.93
2018-12-20T11:12:10.652Z,80.77
2018-12-20T11:14:39.740Z,86.17
2018-12-20T11:17:08.666Z,84.70
2018-12-20T11:19:37.315Z,89.23
2018-12-20T11:22:05.865Z,84.63
2018-12-20T11:24:34.948Z,83.73
2018-12-20T11:27:03.707Z,92.07
2018-12-20T11:29:32.761Z,89.43
2018-12-20T11:32:01.298Z,87.30
2018-12-20T11:34:30.087Z,88.77
2018-12-20T11:36:58.781Z,87.97
2018-12-20T11:39:27.337Z,91.77
2018-12-20T11:41:55.883Z,87.30
2018-12-20T11:44:24.493Z,88.83
2018-12-20T11:46:53.019Z,93.50
2018-12-20T11:49:21.579Z,89.07
2018-12-20T11:51:50.387Z,88.43
2018-12-20T11:54:19.295Z,87.47
2018-12-20T11:56:47.854Z,84.63
2018-12-20T11:59:16.936Z,70.67
2018-12-20T12:01:45.470Z,65.33
2018-12-20T12:04:14.122Z,53.77
2018-12-20T12:06:42.654Z,52.63
2018-12-20T12:09:11.179Z,49.90
2018-12-20T12:11:39.737Z,47.23
2018-12-20T12:14:08.507Z,49.30
2018-12-20T12:16:37.025Z,50.10
2018-12-20T12:19:05.996Z,46.50
2018-12-20T12:21:34.540Z,45.17
2018-12-20T12:24:03.091Z,41.33
2018-12-20T12:26:31.646Z,39.60
2018-12-20T12:29:00.457Z,33.03
2018-12-20T12:31:29.107Z,33.67
2018-12-20T12:33:57.634Z,33.80
2018-12-20T12:36:26.177Z,31.53
2018-12-20T12:38:54.924Z,29.23
2018-12-20T12:41:23.450Z,30.63
2018-12-20T12:43:52.008Z,31.27
2018-12-20T12:46:20.526Z,30.93
2018-12-20T12:48:49.344Z,31.43
2018-12-20T12:51:17.860Z,34.87
2018-12-20T12:53:46.443Z,31.40
2018-12-20T12:56:15.130Z,31.70
2018-12-20T12:58:43.726Z,31.67
2018-12-20T13:01:12.350Z,40.47
2018-12-20T13:03:41.093Z,31.30
2018-12-20T13:06:09.651Z,26.57
2018-12-20T13:08:38.328Z,30.27
2018-12-20T13:11:06.872Z,30.50
2018-12-20T13:13:35.622Z,29.17
2018-12-20T13:16:04.159Z,27.97
2018-12-20T13:18:32.860Z,26.77
2018-12-20T13:21:01.409Z,27.20
2018-12-20T13:23:29.966Z,28.63
2018-12-20T13:25:58.671Z,27.30
2018-12-20T13:28:27.455Z,27.40
2018-12-20T13:30:56.025Z,25.23
2018-12-20T13:33:24.746Z,24.00
2018-12-20T13:35:53.485Z,24.17
2018-12-20T13:38:22.323Z,25.13
2018-12-20T13:40:50.954Z,26.37
2018-12-20T13:43:19.522Z,27.33
2018-12-20T13:45:48.077Z,27.10
2018-12-20T13:48:22.168Z,26.60
2018-12-20T13:50:47.359Z,26.57
2018-12-20T13:53:16.139Z,27.47
2018-12-20T13:55:44.691Z,26.10
2018-12-20T13:58:13.275Z,27.83
2018-12-20T14:00:41.983Z,27.77
2018-12-20T14:03:10.846Z,26.40
2018-12-20T14:05:39.411Z,27.43
2018-12-20T14:08:08.126Z,26.77
2018-12-20T14:10:36.664Z,25.03
2018-12-20T14:13:05.516Z,26.10
2018-12-20T14:15:34.054Z,26.53
2018-12-20T14:18:02.674Z,26.37
2018-12-20T14:20:31.222Z,22.80
2018-12-20T14:22:59.743Z,23.20
2018-12-20T14:25:28.578Z,29.27
2018-12-20T14:27:57.287Z,34.60
2018-12-20T14:30:26.238Z,27.43
2018-12-20T14:32:55.022Z,26.63
2018-12-20T14:35:24.057Z,25.07
2018-12-20T14:37:52.757Z,27.63
2018-12-20T14:40:21.848Z,23.93
2018-12-20T14:42:50.696Z,24.03
2018-12-20T14:45:19.320Z,27.60
2018-12-20T14:47:48.080Z,27.90
2018-12-20T14:50:16.953Z,29.47
2018-12-20T14:52:45.883Z,26.43
2018-12-20T14:55:14.699Z,27.33
2018-12-20T14:57:43.524Z,32.00
2018-12-20T15:00:12.794Z,26.10
2018-12-20T15:02:41.476Z,24.83
2018-12-20T15:05:10.502Z,22.73
2018-12-20T15:07:39.209Z,23.37
2018-12-20T15:10:09.722Z,22.33
2018-12-20T15:12:38.483Z,22.40
2018-12-20T15:15:08.904Z,20.83
2018-12-20T15:17:37.500Z,22.60
2018-12-20T15:20:07.931Z,20.83
2018-12-20T15:22:36.475Z,23.33
2018-12-20T15:25:05.624Z,24.80
2018-12-20T15:27:34.240Z,22.63
2018-12-20T15:30:03.129Z,23.83
2018-12-20T15:32:31.811Z,23.33
2018-12-20T15:35:00.585Z,22.50
2018-12-20T15:37:29.129Z,23.17
2018-12-20T15:39:57.845Z,23.17
2018-12-20T15:42:26.398Z,23.00
2018-12-20T15:44:54.992Z,23.43
2018-12-20T15:47:23.564Z,23.67
2018-12-20T15:49:52.459Z,23.53
2018-12-20T15:52:21.094Z,24.43
2018-12-20T15:54:49.716Z,23.00
2018-12-20T15:57:18.361Z,24.37
2018-12-20T15:59:47.082Z,22.63
2018-12-20T16:02:15.858Z,22.33
2018-12-20T16:04:44.961Z,25.87
2018-12-20T16:07:13.748Z,24.37
2018-12-20T16:09:42.672Z,22.73
2018-12-20T16:12:11.209Z,24.07
2018-12-20T16:14:39.755Z,23.80
2018-12-20T16:17:08.294Z,23.23
2018-12-20T16:19:37.058Z,23.53
2018-12-20T16:22:06.003Z,23.33
2018-12-20T16:24:34.898Z,23.93
2018-12-20T16:27:03.761Z,23.20
2018-12-20T16:29:32.710Z,24.90
2018-12-20T16:32:01.371Z,24.67
2018-12-20T16:34:30.266Z,24.33
2018-12-20T16:36:58.826Z,24.60
2018-12-20T16:39:27.527Z,23.83
2018-12-20T16:41:56.196Z,24.63
2018-12-20T16:44:24.768Z,24.60
2018-12-20T16:46:53.538Z,26.87
2018-12-20T16:49:22.419Z,27.83
2018-12-20T16:51:50.992Z,28.53
2018-12-20T16:54:19.640Z,25.67
2018-12-20T16:56:48.279Z,26.53
2018-12-20T16:59:17.218Z,25.43
2018-12-20T17:01:45.758Z,24.07
2018-12-20T17:04:14.828Z,25.80
2018-12-20T17:06:43.546Z,26.03
2018-12-20T17:09:12.749Z,27.60
2018-12-20T17:11:41.410Z,25.20
2018-12-20T17:14:10.090Z,27.07
2018-12-20T17:16:38.741Z,26.07
2018-12-20T17:19:07.392Z,26.90
2018-12-20T17:21:35.948Z,25.73
2018-12-20T17:24:04.801Z,27.80
2018-12-20T17:26:33.388Z,27.37
2018-12-20T17:29:02.402Z,26.27
2018-12-20T17:31:31.112Z,26.70
2018-12-20T17:34:01.800Z,27.73
2018-12-20T17:36:30.703Z,25.33
2018-12-20T17:38:59.466Z,30.43
2018-12-20T17:41:28.113Z,31.87
2018-12-20T17:43:56.862Z,31.93
2018-12-20T17:46:25.843Z,27.20
2018-12-20T17:48:54.838Z,32.87
2018-12-20T17:51:23.920Z,41.63
2018-12-20T17:53:52.871Z,36.70
2018-12-20T17:56:21.477Z,30.40
2018-12-20T17:58:50.334Z,37.33
2018-12-20T18:01:18.950Z,37.63
2018-12-20T18:03:47.762Z,41.47
2018-12-20T18:06:16.524Z,32.80
2018-12-20T18:08:46.135Z,41.57
2018-12-20T18:11:15.188Z,28.40
2018-12-20T18:13:44.228Z,32.00
2018-12-20T18:16:12.835Z,31.70
2018-12-20T18:18:41.749Z,31.37
2018-12-20T18:21:10.433Z,29.17
2018-12-20T18:23:39.305Z,28.97
2018-12-20T18:26:08.032Z,27.20
2018-12-20T18:28:36.905Z,29.40
2018-12-20T18:31:05.720Z,26.73
2018-12-20T18:33:34.565Z,28.63
2018-12-20T18:36:03.536Z,28.77
2018-12-20T18:38:32.810Z,28.17
2018-12-20T18:41:01.645Z,28.53
2018-12-20T18:43:30.600Z,28.70
2018-12-20T18:45:59.456Z,28.03
2018-12-20T18:48:28.550Z,28.93
2018-12-20T18:50:57.310Z,29.73
2018-12-20T18:53:26.438Z,30.00
2018-12-20T18:55:54.982Z,29.23
2018-12-20T18:58:23.587Z,30.63
2018-12-20T19:00:52.287Z,31.07
2018-12-20T19:03:21.379Z,30.20
2018-12-20T19:05:50.070Z,31.70
2018-12-20T19:08:18.924Z,31.03
2018-12-20T19:10:47.539Z,30.07
2018-12-20T19:13:16.626Z,31.13
2018-12-20T19:15:45.250Z,32.07
2018-12-20T19:18:14.208Z,31.40
2018-12-20T19:20:42.982Z,32.33
2018-12-20T19:23:11.805Z,33.30
2018-12-20T19:25:40.718Z,34.07
2018-12-20T19:28:09.522Z,33.60
2018-12-20T19:30:38.109Z,32.67
2018-12-20T19:33:07.123Z,33.47
2018-12-20T19:35:35.808Z,34.70
2018-12-20T19:38:04.502Z,31.53
2018-12-20T19:40:33.177Z,31.70
2018-12-20T19:43:02.056Z,31.80
2018-12-20T19:45:30.779Z,32.90
2018-12-20T19:47:59.637Z,31.93
2018-12-20T19:50:28.238Z,31.37
2018-12-20T19:52:57.288Z,30.57
2018-12-20T19:55:26.036Z,28.80
2018-12-20T19:57:55.461Z,29.67
2018-12-20T20:00:24.183Z,29.53
2018-12-20T20:02:52.758Z,30.10
2018-12-20T20:05:21.332Z,30.90
2018-12-20T20:07:50.267Z,28.37
2018-12-20T20:10:19.299Z,30.77
2018-12-20T20:12:49.095Z,30.67
2018-12-20T20:15:18.024Z,29.77
2018-12-20T20:17:47.579Z,30.63
2018-12-20T20:20:16.413Z,30.53
2018-12-20T20:22:45.079Z,30.37
2018-12-20T20:25:13.629Z,31.77
2018-12-20T20:27:42.260Z,29.10
2018-12-20T20:30:13.743Z,29.30
2018-12-20T20:32:42.698Z,29.27
2018-12-20T20:35:11.276Z,30.70
2018-12-20T20:37:40.070Z,30.80
2018-12-20T20:40:10.476Z,29.50
2018-12-20T20:42:39.157Z,30.47
2018-12-20T20:45:07.827Z,30.30
2018-12-20T20:47:36.428Z,32.73
2018-12-20T20:50:06.700Z,29.93
2018-12-20T20:52:35.297Z,31.30
2018-12-20T20:55:05.784Z,29.60
2018-12-20T20:57:34.550Z,31.03
2018-12-20T21:00:03.345Z,31.20
2018-12-20T21:02:31.941Z,31.20
2018-12-20T21:05:00.634Z,29.90
2018-12-20T21:07:29.884Z,30.63
2018-12-20T21:09:58.634Z,28.07
2018-12-20T21:12:27.227Z,29.93
2018-12-20T21:14:55.769Z,27.53
2018-12-20T21:17:24.362Z,28.73
2018-12-20T21:19:52.941Z,27.93
2018-12-20T21:22:21.821Z,28.80
2018-12-20T21:24:50.548Z,29.27
2018-12-20T21:27:19.277Z,28.00
2018-12-20T21:29:47.857Z,28.30
2018-12-20T21:32:16.509Z,31.57
2018-12-20T21:34:45.062Z,28.10
2018-12-20T21:37:13.643Z,28.47
2018-12-20T21:39:42.423Z,28.87
2018-12-20T21:42:11.168Z,29.70
2018-12-20T21:44:39.746Z,29.40
2018-12-20T21:47:08.297Z,28.93
2018-12-20T21:49:36.904Z,31.50
2018-12-20T21:52:06.672Z,30.73
2018-12-20T21:54:35.192Z,27.67
2018-12-20T21:57:04.058Z,30.23
2018-12-20T21:59:32.743Z,33.30
2018-12-20T22:02:01.565Z,32.00
2018-12-20T22:04:30.114Z,32.70
2018-12-20T22:06:58.696Z,33.20
2018-12-20T22:09:27.243Z,32.73
2018-12-20T22:11:56.100Z,32.23
2018-12-20T22:14:24.699Z,31.50
2018-12-20T22:16:53.271Z,29.63
2018-12-20T22:19:21.831Z,31.90
2018-12-20T22:21:50.681Z,30.90
2018-12-20T22:24:19.255Z,31.80
2018-12-20T22:26:48.055Z,31.13
2018-12-20T22:29:16.616Z,29.93
2018-12-20T22:31:45.192Z,30.93
2018-12-20T22:34:13.773Z,31.37
2018-12-20T22:36:42.806Z,32.23
2018-12-20T22:39:11.380Z,32.30
2018-12-20T22:41:39.961Z,31.07
2018-12-20T22:44:08.558Z,30.60
2018-12-20T22:46:37.136Z,28.17
2018-12-20T22:49:05.821Z,28.70
2018-12-20T22:51:34.408Z,27.97
2018-12-20T22:54:03.005Z,28.20
2018-12-20T22:56:31.933Z,26.37
2018-12-20T22:59:00.511Z,27.03
2018-12-20T23:01:29.094Z,27.23
2018-12-20T23:03:57.674Z,27.00
2018-12-20T23:06:26.270Z,25.70
2018-12-20T23:08:54.845Z,26.33
2018-12-20T23:11:23.447Z,27.40
2018-12-20T23:13:52.108Z,27.43
2018-12-20T23:16:20.704Z,24.07
2018-12-20T23:18:49.297Z,25.07
2018-12-20T23:21:17.870Z,25.70
2018-12-20T23:23:47.473Z,26.73
2018-12-20T23:26:16.629Z,22.40
2018-12-20T23:28:45.324Z,24.07
2018-12-20T23:31:14.043Z,22.80
2018-12-20T23:33:42.593Z,22.47
2018-12-20T23:36:11.224Z,23.23
2018-12-20T23:38:39.822Z,23.03
2018-12-20T23:41:08.664Z,24.73
2018-12-20T23:43:37.212Z,23.67
2018-12-20T23:46:06.041Z,25.20
2018-12-20T23:48:34.615Z,23.87
2018-12-20T23:51:03.239Z,23.13
2018-12-20T23:53:31.778Z,25.10
2018-12-20T23:56:00.524Z,23.97
2018-12-20T23:58:29.080Z,25.37
